Byron, California
Current Conditions -  °F | °C
As of 3:53 PM on Saturday 25 Oct 2014 (Local Time) from KLVK Reporting Station
Scattered Clouds Scattered Clouds  
Wind Chill: 69°   Ceiling: Unl
Heat Index: 69°   Visibility: 10mi
Dew Point: 51°   Wind: 16mph
Humidity: 53%   Direction: 250°WSW
Pressure: 30.05"   Gusts: NA
Location:  37.87°N, 121.64°W
Report Text: KLVK 252253Z 25014KT 10SM SCT045 SCT060 21/11 A3005 RMK AO2 SLP173 T02060106 $
Loading
Personal Weather Stations






























Interactive Weather Map
Tropical Storm Tracking
New forecast layout! Learn more

10-Day Weather Forecast

Advertisements
Track Severe Weather on mobile